Time;durP1;ratioP1;P1;durP2;ratioP2;P2;SDS_P1;SDS_P2;PMS_P1;PMS_P2;Temp;Humidity;BMP_temperature;BMP_pressure;BME280_temperature;BME280_humidity;BME280_pressure;Samples;Min_cycle;Max_cycle;Signal;HPM_P1;HPM_P2
2022/10/19 00:01:19;;;;;;;3.43;3.13;;;16.70;89.90;;;;;;4995266;28;20859;-70
2022/10/19 00:03:49;;;;;;;4.27;3.07;;;16.70;89.90;;;;;;4988340;28;20432;-70
2022/10/19 00:06:23;;;;;;;2.97;2.67;;;16.70;89.90;;;;;;4995835;28;20433;-68
2022/10/19 00:08:52;;;;;;;3.30;3.00;;;16.70;89.90;;;;;;4977885;28;20584;-70
2022/10/19 00:11:22;;;;;;;3.17;2.87;;;16.70;89.90;;;;;;4995741;28;20430;-70
2022/10/19 00:13:52;;;;;;;3.07;2.77;;;16.70;89.90;;;;;;4972080;28;20466;-70
2022/10/19 00:16:21;;;;;;;3.20;2.50;;;16.70;89.90;;;;;;4995981;28;20473;-70
2022/10/19 00:18:50;;;;;;;2.83;2.53;;;16.70;89.90;;;;;;4987679;28;20545;-70
2022/10/19 00:21:19;;;;;;;3.33;3.03;;;16.70;89.90;;;;;;4988593;28;20473;-70
2022/10/19 00:23:48;;;;;;;3.30;2.80;;;16.60;89.80;;;;;;4990098;28;20554;-70
2022/10/19 00:26:17;;;;;;;3.57;3.23;;;16.70;89.90;;;;;;4991049;28;20437;-70
2022/10/19 00:28:45;;;;;;;3.10;2.80;;;16.60;89.80;;;;;;4955656;28;20494;-70
2022/10/19 00:31:17;;;;;;;2.70;2.50;;;16.60;89.80;;;;;;4971908;28;20453;-70
2022/10/19 00:33:46;;;;;;;3.23;3.03;;;16.70;89.90;;;;;;4979072;28;20441;-70
2022/10/19 00:36:17;;;;;;;2.90;2.70;;;16.70;89.90;;;;;;4979642;28;20480;-70
2022/10/19 00:38:48;;;;;;;2.63;2.43;;;16.60;89.90;;;;;;4977500;28;20857;-70
2022/10/19 00:41:21;;;;;;;4.17;2.87;;;16.60;89.80;;;;;;4991321;28;20436;-70
2022/10/19 00:43:55;;;;;;;3.33;3.03;;;16.60;89.80;;;;;;4993227;28;20499;-70
2022/10/19 00:46:25;;;;;;;3.50;3.20;;;16.60;89.80;;;;;;4989539;28;20541;-70
2022/10/19 00:48:58;;;;;;;5.10;2.70;;;16.60;89.80;;;;;;4970417;28;20474;-70
2022/10/19 00:51:29;;;;;;;2.60;2.40;;;16.60;89.80;;;;;;4971285;28;20476;-70
2022/10/19 00:53:58;;;;;;;2.50;2.30;;;16.60;90.00;;;;;;4968392;28;20568;-69
2022/10/19 00:56:29;;;;;;;3.20;2.90;;;16.60;89.80;;;;;;4988239;28;20493;-69
2022/10/19 00:58:58;;;;;;;3.50;2.93;;;16.60;89.80;;;;;;4992094;28;20535;-70
2022/10/19 01:01:29;;;;;;;2.87;2.60;;;16.60;89.80;;;;;;4989800;28;20508;-70
2022/10/19 01:03:57;;;;;;;3.33;2.67;;;16.60;89.80;;;;;;4986020;28;20489;-70
2022/10/19 01:06:26;;;;;;;3.13;2.83;;;16.60;89.80;;;;;;4971024;28;20872;-70
2022/10/19 01:08:54;;;;;;;3.43;2.20;;;16.60;89.80;;;;;;4984622;28;21075;-70
2022/10/19 01:11:38;;;;;;;3.40;2.80;;;16.60;89.80;;;;;;4970605;28;20521;-70
2022/10/19 01:14:21;;;;;;;3.30;2.90;;;16.60;89.70;;;;;;4988420;28;21001;-70
2022/10/19 01:16:58;;;;;;;2.67;2.47;;;16.60;89.80;;;;;;4981035;28;20881;-70
2022/10/19 01:19:59;;;;;;;2.57;2.37;;;16.60;89.50;;;;;;4986630;28;20908;-70
2022/10/19 01:22:36;;;;;;;4.00;2.60;;;16.60;89.40;;;;;;4973597;28;20451;-69
2022/10/19 01:25:18;;;;;;;3.07;2.60;;;16.60;89.70;;;;;;4981618;28;20484;-70
2022/10/19 01:28:12;;;;;;;3.43;2.70;;;16.60;89.60;;;;;;4979652;28;20449;-70
2022/10/19 01:30:50;;;;;;;2.90;2.60;;;16.60;89.40;;;;;;4987353;28;20461;-69
2022/10/19 01:33:35;;;;;;;2.90;2.60;;;16.60;89.50;;;;;;4987440;28;20469;-69
2022/10/19 01:36:15;;;;;;;2.30;2.10;;;16.50;89.30;;;;;;4977388;28;20528;-70
2022/10/19 01:38:46;;;;;;;2.73;2.53;;;16.50;89.10;;;;;;5095659;23;20453;-67
2022/10/19 01:41:20;;;;;;;3.20;2.90;;;16.50;89.20;;;;;;4926409;29;20987;-68
2022/10/19 01:43:57;;;;;;;3.50;3.13;;;16.50;89.00;;;;;;4934518;28;20498;-69
2022/10/19 01:46:32;;;;;;;3.00;2.80;;;16.50;89.10;;;;;;4951164;28;20563;-70
2022/10/19 01:49:15;;;;;;;2.90;2.70;;;16.50;89.10;;;;;;4943939;28;20923;-69
2022/10/19 01:51:49;;;;;;;3.43;3.13;;;16.50;88.90;;;;;;4910190;29;20831;-69
2022/10/19 01:54:19;;;;;;;2.57;2.37;;;16.50;88.80;;;;;;4934262;28;20587;-69
2022/10/19 01:56:49;;;;;;;3.40;3.10;;;16.50;88.90;;;;;;4934161;29;20503;-68
2022/10/19 01:59:20;;;;;;;4.30;3.30;;;16.50;88.80;;;;;;4940545;29;20570;-69
2022/10/19 02:01:53;;;;;;;2.40;2.20;;;16.50;88.90;;;;;;4914393;29;20453;-68
2022/10/19 02:04:23;;;;;;;2.47;2.27;;;16.50;88.80;;;;;;4931737;28;21073;-69
2022/10/19 02:06:54;;;;;;;3.07;2.80;;;16.50;88.80;;;;;;4932225;29;20447;-69
2022/10/19 02:09:23;;;;;;;2.90;2.50;;;16.50;88.60;;;;;;4913910;29;21055;-69
2022/10/19 02:11:55;;;;;;;3.20;2.90;;;16.50;88.70;;;;;;4950614;28;20424;-68
2022/10/19 02:14:31;;;;;;;3.80;2.80;;;16.50;88.80;;;;;;4916097;29;20484;-67
2022/10/19 02:17:05;;;;;;;3.23;2.93;;;16.50;88.60;;;;;;4931593;29;20515;-69
2022/10/19 02:19:33;;;;;;;2.80;2.50;;;16.50;89.90;;;;;;4934514;28;20547;-69
2022/10/19 02:22:02;;;;;;;2.60;2.40;;;16.40;88.50;;;;;;4943565;29;20858;-68
2022/10/19 02:24:30;;;;;;;2.97;2.63;;;16.40;88.40;;;;;;4942953;28;20888;-69
2022/10/19 02:27:00;;;;;;;2.87;2.67;;;16.40;88.40;;;;;;4944695;29;20487;-67
2022/10/19 02:29:29;;;;;;;3.57;3.37;;;16.40;88.50;;;;;;4936464;28;20555;-69
2022/10/19 02:31:57;;;;;;;2.43;2.23;;;16.40;88.30;;;;;;4950664;29;20535;-69
2022/10/19 02:34:27;;;;;;;3.80;2.23;;;16.40;88.30;;;;;;4934696;28;20878;-69
2022/10/19 02:36:56;;;;;;;2.73;2.10;;;16.40;88.30;;;;;;4928802;29;20547;-68
2022/10/19 02:39:25;;;;;;;2.77;2.57;;;16.40;88.20;;;;;;4933269;28;20468;-69
2022/10/19 02:41:59;;;;;;;2.90;2.70;;;16.40;88.30;;;;;;4951035;29;20809;-69
2022/10/19 02:44:33;;;;;;;3.60;3.13;;;16.40;88.20;;;;;;4945400;29;20986;-68
2022/10/19 02:47:07;;;;;;;2.60;2.40;;;16.40;88.00;;;;;;4939128;29;20519;-70
2022/10/19 02:49:37;;;;;;;2.73;2.53;;;16.40;88.00;;;;;;4946037;28;20534;-67
2022/10/19 02:52:07;;;;;;;3.47;2.87;;;16.40;88.10;;;;;;4960300;28;20531;-67
2022/10/19 02:54:36;;;;;;;4.17;3.53;;;16.40;87.90;;;;;;4921291;29;21071;-68
2022/10/19 02:57:14;;;;;;;2.40;2.20;;;16.40;87.90;;;;;;4943386;29;20831;-67
2022/10/19 02:59:43;;;;;;;2.93;2.53;;;16.40;87.90;;;;;;4942260;29;20551;-68
2022/10/19 03:02:11;;;;;;;2.70;2.50;;;16.30;87.80;;;;;;4934266;29;20553;-68
2022/10/19 03:04:41;;;;;;;2.63;2.40;;;16.40;87.80;;;;;;4940741;28;20840;-69
2022/10/19 03:07:10;;;;;;;2.70;2.37;;;16.40;87.80;;;;;;4942294;29;20975;-68
2022/10/19 03:09:42;;;;;;;3.20;2.50;;;16.30;87.80;;;;;;4941368;28;21077;-68
2022/10/19 03:12:10;;;;;;;3.00;2.57;;;16.30;87.70;;;;;;4943565;29;20500;-69
2022/10/19 03:14:39;;;;;;;2.63;2.43;;;16.30;89.00;;;;;;4933599;28;20835;-69
2022/10/19 03:17:08;;;;;;;2.93;2.20;;;16.30;87.50;;;;;;4960202;28;20865;-69
2022/10/19 03:19:37;;;;;;;2.70;2.50;;;16.30;87.60;;;;;;4933436;28;20463;-69
2022/10/19 03:22:06;;;;;;;2.50;2.30;;;16.30;87.70;;;;;;4955790;28;20440;-73
2022/10/19 03:24:35;;;;;;;2.77;2.57;;;16.30;87.70;;;;;;4954083;28;20543;-68
2022/10/19 03:27:04;;;;;;;2.53;2.33;;;16.30;87.70;;;;;;4927882;29;20547;-69
2022/10/19 03:29:32;;;;;;;2.40;2.20;;;16.30;87.60;;;;;;4929850;29;20469;-69
2022/10/19 03:32:00;;;;;;;2.33;2.13;;;16.30;87.60;;;;;;4939199;29;20459;-70
2022/10/19 03:34:29;;;;;;;2.57;2.37;;;16.30;87.60;;;;;;4942634;28;20975;-69
2022/10/19 03:36:58;;;;;;;2.90;2.47;;;16.30;87.70;;;;;;4928386;29;20447;-68
2022/10/19 03:39:28;;;;;;;3.23;2.23;;;16.30;87.70;;;;;;4912913;29;20476;-68
2022/10/19 03:41:56;;;;;;;2.93;2.63;;;16.30;87.60;;;;;;4922374;29;20444;-70
2022/10/19 03:44:24;;;;;;;2.50;2.30;;;16.30;87.70;;;;;;4930701;29;21051;-69
2022/10/19 03:46:53;;;;;;;2.30;2.10;;;16.30;87.50;;;;;;4921372;29;20452;-68
2022/10/19 03:49:21;;;;;;;3.17;2.37;;;16.30;87.60;;;;;;4940278;28;20496;-68
2022/10/19 03:51:49;;;;;;;2.43;2.23;;;16.20;87.50;;;;;;4942144;29;20444;-70
2022/10/19 03:54:18;;;;;;;2.23;2.00;;;16.20;87.60;;;;;;4926447;28;20488;-69
2022/10/19 03:56:52;;;;;;;2.30;2.10;;;16.20;87.60;;;;;;4938924;29;20456;-69
2022/10/19 03:59:20;;;;;;;1.90;1.80;;;16.20;87.60;;;;;;4924801;28;20515;-68
2022/10/19 04:01:49;;;;;;;2.20;2.00;;;16.20;87.70;;;;;;4946373;29;20861;-69
2022/10/19 04:04:19;;;;;;;2.67;2.47;;;16.20;87.70;;;;;;4952259;28;20540;-69
2022/10/19 04:06:49;;;;;;;3.40;2.47;;;16.20;87.70;;;;;;4937661;29;20437;-69
2022/10/19 04:09:20;;;;;;;2.20;2.07;;;16.20;87.60;;;;;;4941070;28;20476;-69
2022/10/19 04:11:50;;;;;;;3.00;2.27;;;16.20;87.50;;;;;;4940639;29;20487;-67
2022/10/19 04:14:21;;;;;;;2.50;2.30;;;16.20;87.50;;;;;;4939252;28;20480;-69
2022/10/19 04:17:00;;;;;;;2.47;1.93;;;16.20;87.60;;;;;;4958589;28;20502;-69
2022/10/19 04:19:28;;;;;;;2.83;2.53;;;16.20;87.50;;;;;;4913445;29;20924;-69
2022/10/19 04:21:57;;;;;;;2.40;2.20;;;16.20;87.40;;;;;;4915782;29;20468;-69
2022/10/19 04:24:25;;;;;;;3.47;2.30;;;16.20;87.50;;;;;;4929289;28;20500;-69
2022/10/19 04:26:56;;;;;;;3.10;2.80;;;16.10;87.30;;;;;;4933561;29;20527;-69
2022/10/19 04:29:26;;;;;;;2.53;2.33;;;16.10;87.30;;;;;;4939894;28;21067;-70
2022/10/19 04:31:58;;;;;;;2.53;2.33;;;16.10;87.30;;;;;;4924887;29;20526;-68
2022/10/19 04:34:27;;;;;;;1.90;1.80;;;16.10;87.30;;;;;;4947571;28;20892;-69
2022/10/19 04:36:58;;;;;;;2.03;1.80;;;16.10;88.50;;;;;;4943711;29;20468;-69
2022/10/19 04:39:26;;;;;;;3.50;2.30;;;16.10;87.00;;;;;;4920196;29;20479;-68
2022/10/19 04:41:56;;;;;;;1.77;1.67;;;16.10;87.30;;;;;;4943972;28;20441;-69
2022/10/19 04:44:25;;;;;;;2.30;2.10;;;16.10;87.30;;;;;;4954767;28;20503;-69
2022/10/19 04:46:53;;;;;;;2.00;1.73;;;16.10;87.30;;;;;;4924618;29;20436;-68
2022/10/19 04:49:21;;;;;;;2.37;2.17;;;16.10;87.30;;;;;;4939385;29;20957;-69
2022/10/19 04:51:50;;;;;;;2.80;2.10;;;16.10;87.10;;;;;;4947944;28;20476;-69
2022/10/19 04:54:18;;;;;;;2.00;1.90;;;16.10;87.00;;;;;;4938740;29;20983;-69
2022/10/19 04:56:46;;;;;;;2.33;2.13;;;16.10;87.10;;;;;;4937427;29;20520;-69
2022/10/19 04:59:16;;;;;;;1.80;1.70;;;16.10;87.00;;;;;;4929791;29;21015;-67
2022/10/19 05:01:44;;;;;;;2.53;2.30;;;16.10;87.20;;;;;;4932308;29;20960;-68
2022/10/19 05:04:14;;;;;;;2.00;1.70;;;16.10;87.20;;;;;;4943219;28;20547;-68
2022/10/19 05:06:43;;;;;;;2.00;1.90;;;16.10;87.20;;;;;;4929523;29;20451;-67
2022/10/19 05:09:11;;;;;;;2.43;2.23;;;16.00;87.20;;;;;;4918891;29;20475;-68
2022/10/19 05:11:39;;;;;;;2.13;2.03;;;16.10;87.20;;;;;;4920530;29;20539;-67
2022/10/19 05:14:08;;;;;;;2.63;1.93;;;16.00;87.00;;;;;;4920584;29;20535;-70
2022/10/19 05:16:38;;;;;;;1.70;1.53;;;16.00;87.00;;;;;;4932057;29;20444;-68
2022/10/19 05:19:06;;;;;;;2.20;2.10;;;16.00;87.00;;;;;;4928832;28;20476;-69
2022/10/19 05:21:34;;;;;;;1.83;1.50;;;16.00;87.00;;;;;;4920476;29;20445;-69
2022/10/19 05:24:03;;;;;;;1.70;1.60;;;16.00;87.10;;;;;;4924861;29;20841;-69
2022/10/19 05:26:31;;;;;;;1.93;1.70;;;16.00;87.10;;;;;;4936582;29;20538;-67
2022/10/19 05:29:03;;;;;;;2.20;2.00;;;16.00;87.10;;;;;;4920515;28;20983;-69
2022/10/19 05:31:33;;;;;;;2.63;2.43;;;16.00;87.20;;;;;;4922632;29;20598;-68
2022/10/19 05:34:03;;;;;;;2.60;2.07;;;16.00;87.10;;;;;;4929475;28;20567;-69
2022/10/19 05:36:34;;;;;;;2.40;2.20;;;16.00;87.10;;;;;;4928027;29;20492;-68
2022/10/19 05:39:06;;;;;;;2.07;1.97;;;16.00;87.10;;;;;;4926550;28;20544;-68
2022/10/19 05:41:35;;;;;;;2.00;1.80;;;16.00;87.20;;;;;;4929196;29;20436;-68
2022/10/19 05:44:04;;;;;;;2.03;1.93;;;16.00;87.10;;;;;;4928857;28;20543;-69
2022/10/19 05:46:34;;;;;;;2.30;2.10;;;16.00;86.80;;;;;;4947921;28;21022;-69
2022/10/19 05:49:04;;;;;;;2.20;2.00;;;16.00;86.70;;;;;;4933703;29;20488;-69
2022/10/19 05:51:32;;;;;;;3.60;2.10;;;16.00;86.50;;;;;;4930170;29;20441;-68
2022/10/19 05:54:00;;;;;;;2.40;2.20;;;15.90;86.40;;;;;;4942850;28;20589;-68
2022/10/19 05:56:30;;;;;;;2.30;2.10;;;15.90;86.50;;;;;;4936507;29;20543;-68
2022/10/19 05:59:00;;;;;;;2.10;1.90;;;15.90;86.40;;;;;;4943906;28;20498;-68
2022/10/19 06:01:30;;;;;;;2.20;2.00;;;15.90;86.40;;;;;;4934325;29;20539;-68
2022/10/19 06:04:00;;;;;;;2.07;1.87;;;15.90;86.40;;;;;;4916402;29;20476;-68
2022/10/19 06:06:31;;;;;;;2.13;1.93;;;15.90;86.30;;;;;;4934551;29;20469;-68
2022/10/19 06:09:00;;;;;;;2.43;2.20;;;15.90;86.50;;;;;;4936281;29;20480;-68
2022/10/19 06:11:30;;;;;;;1.80;1.70;;;15.90;86.30;;;;;;4916744;29;20437;-69
2022/10/19 06:14:01;;;;;;;2.10;1.90;;;15.90;86.20;;;;;;4938675;29;20595;-69
2022/10/19 06:16:31;;;;;;;1.90;1.80;;;15.90;86.00;;;;;;4915379;29;20455;-68
2022/10/19 06:18:59;;;;;;;2.10;1.90;;;15.90;86.00;;;;;;4933262;29;20479;-67
2022/10/19 06:21:31;;;;;;;2.70;2.17;;;15.90;86.00;;;;;;4916664;29;20444;-68
2022/10/19 06:24:02;;;;;;;2.03;1.93;;;15.80;86.00;;;;;;4940884;28;20519;-68
2022/10/19 06:26:32;;;;;;;2.30;2.10;;;15.80;85.80;;;;;;4923498;29;20428;-69
2022/10/19 06:29:02;;;;;;;2.03;1.83;;;15.80;86.00;;;;;;4928351;28;20502;-72
2022/10/19 06:31:33;;;;;;;1.70;1.60;;;15.80;86.10;;;;;;4924360;29;20437;-74
2022/10/19 06:34:02;;;;;;;1.73;1.60;;;15.80;86.10;;;;;;4925190;28;20566;-73
2022/10/19 06:36:32;;;;;;;1.90;1.80;;;15.80;86.20;;;;;;4939001;29;20441;-73
2022/10/19 06:39:02;;;;;;;1.33;1.23;;;15.80;86.10;;;;;;4914206;29;20543;-73
2022/10/19 06:41:33;;;;;;;1.97;1.87;;;15.80;86.20;;;;;;4930798;29;20491;-73
2022/10/19 06:44:18;;;;;;;1.87;1.77;;;15.80;86.20;;;;;;4920854;28;20847;-72
2022/10/19 06:46:48;;;;;;;1.97;1.77;;;15.80;86.30;;;;;;4932846;29;20987;-71
2022/10/19 06:49:16;;;;;;;2.40;2.20;;;15.80;85.70;;;;;;4941985;28;20536;-73
2022/10/19 06:51:46;;;;;;;2.23;2.03;;;15.80;85.90;;;;;;4932559;29;20433;-73
2022/10/19 06:54:15;;;;;;;2.10;1.90;;;15.80;85.80;;;;;;4916990;29;20476;-73
2022/10/19 06:56:43;;;;;;;2.00;1.90;;;15.80;85.80;;;;;;4933734;29;20444;-73
2022/10/19 06:59:12;;;;;;;1.63;1.30;;;15.80;85.90;;;;;;4931371;28;21038;-72
2022/10/19 07:01:42;;;;;;;5.23;4.73;;;15.80;86.00;;;;;;4938267;29;20440;-72
2022/10/19 07:04:11;;;;;;;6.20;4.97;;;15.80;82.90;;;;;;4930916;29;20480;-72
2022/10/19 07:06:40;;;;;;;5.77;5.00;;;15.80;80.00;;;;;;4938500;29;20248;-73
2022/10/19 07:09:10;;;;;;;4.30;3.90;;;15.80;80.50;;;;;;4929406;29;20563;-73
2022/10/19 07:11:38;;;;;;;3.60;3.10;;;15.80;81.20;;;;;;4933101;29;20491;-73
2022/10/19 07:14:13;;;;;;;3.97;3.57;;;15.80;81.90;;;;;;4924997;29;20484;-72
2022/10/19 07:16:42;;;;;;;4.20;3.23;;;15.70;83.30;;;;;;4932020;29;20459;-73
2022/10/19 07:19:12;;;;;;;4.17;3.17;;;15.70;82.30;;;;;;4932441;28;20566;-72
2022/10/19 07:21:42;;;;;;;3.70;2.70;;;15.70;82.60;;;;;;4915718;29;20472;-71
2022/10/19 07:24:12;;;;;;;5.60;3.63;;;15.70;82.80;;;;;;4942709;29;20920;-73
2022/10/19 07:26:40;;;;;;;3.13;2.87;;;15.70;82.90;;;;;;4958487;28;20442;-73
2022/10/19 07:29:09;;;;;;;5.07;2.50;;;15.70;83.00;;;;;;4926823;29;20496;-72
2022/10/19 07:31:37;;;;;;;3.10;2.67;;;15.60;83.10;;;;;;4931609;29;20445;-73
2022/10/19 07:34:06;;;;;;;3.30;3.00;;;15.60;83.10;;;;;;4921770;29;20907;-74
2022/10/19 07:36:35;;;;;;;3.53;3.23;;;15.60;83.20;;;;;;4914765;29;20893;-72
2022/10/19 07:39:07;;;;;;;2.73;2.53;;;15.60;83.10;;;;;;4915783;29;20485;-71
2022/10/19 07:41:37;;;;;;;2.20;2.00;;;15.60;83.40;;;;;;5003800;23;20518;-71
2022/10/19 07:44:06;;;;;;;3.40;3.10;;;15.60;83.40;;;;;;4996323;28;20515;-70
2022/10/19 07:46:38;;;;;;;2.50;2.30;;;15.60;83.40;;;;;;4989031;28;20437;-72
2022/10/19 07:49:09;;;;;;;3.20;2.27;;;15.60;83.40;;;;;;4976308;28;20472;-72
2022/10/19 07:51:38;;;;;;;5.40;2.40;;;15.60;83.60;;;;;;4947463;28;20447;-70
2022/10/19 07:54:07;;;;;;;3.00;2.00;;;15.60;83.60;;;;;;4970284;28;20462;-72
2022/10/19 07:56:37;;;;;;;2.47;2.27;;;15.60;83.50;;;;;;4971829;28;20447;-73
2022/10/19 07:59:06;;;;;;;2.90;2.10;;;15.60;83.60;;;;;;4965478;28;20484;-72
2022/10/19 08:01:39;;;;;;;2.90;2.60;;;15.60;83.60;;;;;;4948617;28;20464;-72
2022/10/19 08:04:08;;;;;;;2.93;2.67;;;15.60;83.60;;;;;;4968497;28;20480;-72
2022/10/19 08:06:56;;;;;;;2.40;2.17;;;15.60;83.60;;;;;;4946942;28;20439;-72
2022/10/19 08:09:25;;;;;;;3.40;1.93;;;15.60;83.70;;;;;;4957953;28;20468;-72
2022/10/19 08:12:15;;;;;;;2.60;2.30;;;15.60;83.70;;;;;;4979586;28;20958;-71
2022/10/19 08:14:44;;;;;;;2.07;1.87;;;15.60;83.60;;;;;;4949546;28;20605;-72
2022/10/19 08:17:16;;;;;;;3.13;2.83;;;15.60;83.60;;;;;;4959798;28;20486;-72
2022/10/19 08:20:06;;;;;;;2.83;2.50;;;15.60;83.70;;;;;;4962999;28;20714;-72
2022/10/19 08:22:37;;;;;;;2.10;2.00;;;15.50;83.40;;;;;;4957468;28;20958;-72
2022/10/19 08:25:06;;;;;;;2.50;2.17;;;15.50;83.50;;;;;;4952001;28;20471;-73
2022/10/19 08:27:36;;;;;;;1.63;1.50;;;15.50;83.60;;;;;;4932207;29;20464;-72
2022/10/19 08:30:05;;;;;;;2.07;1.87;;;15.50;83.60;;;;;;4966512;28;20466;-73
2022/10/19 08:32:34;;;;;;;2.60;2.40;;;15.50;83.60;;;;;;4962297;28;20498;-72
2022/10/19 08:35:04;;;;;;;3.30;1.87;;;15.50;83.70;;;;;;4951685;28;20503;-70
2022/10/19 08:37:38;;;;;;;1.70;1.57;;;15.50;83.60;;;;;;4942087;29;20879;-72
2022/10/19 08:40:18;;;;;;;2.53;2.33;;;15.50;83.80;;;;;;4964821;28;20490;-70
2022/10/19 08:42:57;;;;;;;2.40;1.83;;;15.50;83.70;;;;;;4955705;28;20860;-72
2022/10/19 08:45:39;;;;;;;2.90;2.60;;;15.50;83.60;;;;;;4944511;28;20507;-73
2022/10/19 08:48:24;;;;;;;2.53;2.07;;;15.50;83.70;;;;;;4964374;28;20615;-72
2022/10/19 08:50:54;;;;;;;2.73;2.30;;;15.50;83.60;;;;;;4967340;28;20447;-73
2022/10/19 08:53:31;;;;;;;2.23;1.83;;;15.50;83.70;;;;;;4978894;28;20523;-72
2022/10/19 08:56:14;;;;;;;2.70;2.10;;;15.50;83.80;;;;;;4962771;28;20446;-72
2022/10/19 08:59:13;;;;;;;2.40;2.10;;;15.50;83.60;;;;;;4951478;28;21042;-72
2022/10/19 09:01:47;;;;;;;3.00;2.70;;;15.50;83.70;;;;;;4964799;28;20470;-73
2022/10/19 09:04:21;;;;;;;3.40;1.80;;;15.40;83.60;;;;;;4954362;28;20458;-72
2022/10/19 09:07:01;;;;;;;2.50;2.07;;;15.40;83.90;;;;;;4968639;28;20886;-72
2022/10/19 09:09:32;;;;;;;2.20;1.63;;;15.40;83.90;;;;;;4961820;28;20474;-71
2022/10/19 09:12:05;;;;;;;2.70;2.50;;;15.40;83.80;;;;;;4968513;28;20485;-72
2022/10/19 09:14:45;;;;;;;2.33;2.13;;;15.40;83.80;;;;;;4954635;28;20875;-72
2022/10/19 09:17:16;;;;;;;6.30;4.30;;;15.40;83.90;;;;;;4959220;28;20462;-72
2022/10/19 09:19:45;;;;;;;4.70;4.20;;;15.40;84.00;;;;;;4944380;29;20471;-70
2022/10/19 09:22:20;;;;;;;4.60;3.50;;;15.40;84.00;;;;;;4962933;28;20501;-71
2022/10/19 09:24:52;;;;;;;3.27;2.73;;;15.40;83.90;;;;;;4950090;28;20972;-72
2022/10/19 09:27:22;;;;;;;3.80;3.37;;;15.40;84.00;;;;;;4961901;28;20447;-72
2022/10/19 09:29:56;;;;;;;3.97;3.00;;;15.40;84.10;;;;;;4965678;28;20471;-72
2022/10/19 09:32:28;;;;;;;4.80;3.87;;;15.40;84.10;;;;;;4960205;28;20999;-72
2022/10/19 09:35:01;;;;;;;3.70;3.40;;;15.40;84.20;;;;;;4977632;28;20534;-72
2022/10/19 09:37:31;;;;;;;4.73;3.47;;;15.40;84.30;;;;;;4960719;28;20462;-72
2022/10/19 09:40:00;;;;;;;3.87;3.47;;;15.40;84.30;;;;;;4955922;28;20501;-73
2022/10/19 09:42:31;;;;;;;4.23;3.80;;;15.40;84.40;;;;;;4973548;28;20474;-72
2022/10/19 09:45:14;;;;;;;4.43;4.03;;;15.30;84.40;;;;;;4956317;28;20539;-72
2022/10/19 09:47:47;;;;;;;5.47;3.63;;;15.40;84.50;;;;;;4956091;28;20471;-72
2022/10/19 09:50:19;;;;;;;3.57;2.63;;;15.30;84.40;;;;;;4970993;28;20562;-72
2022/10/19 09:52:51;;;;;;;6.70;3.87;;;15.30;84.50;;;;;;4940504;28;20455;-72
2022/10/19 09:55:35;;;;;;;4.30;3.50;;;15.30;84.70;;;;;;4948585;28;20483;-72
2022/10/19 09:58:06;;;;;;;4.80;3.77;;;15.30;84.70;;;;;;4968312;28;20553;-72
2022/10/19 10:00:41;;;;;;;6.20;4.47;;;15.30;84.70;;;;;;4951263;28;20451;-72
2022/10/19 10:03:25;;;;;;;3.40;3.10;;;15.30;84.80;;;;;;4937233;28;20560;-72
2022/10/19 10:05:56;;;;;;;3.03;2.60;;;15.30;84.80;;;;;;4970630;28;20433;-72
2022/10/19 10:08:27;;;;;;;7.20;3.23;;;15.30;84.70;;;;;;4955729;28;20538;-72
2022/10/19 10:11:06;;;;;;;5.43;3.97;;;15.30;84.60;;;;;;4963919;28;21024;-72
2022/10/19 10:13:40;;;;;;;6.73;5.50;;;15.30;84.70;;;;;;4939110;28;20439;-72
2022/10/19 10:16:15;;;;;;;4.20;3.53;;;15.30;85.10;;;;;;4960056;28;20438;-72
2022/10/19 10:18:53;;;;;;;4.93;4.43;;;15.30;85.00;;;;;;4948915;28;20490;-72
2022/10/19 10:21:24;;;;;;;3.77;3.43;;;15.30;85.10;;;;;;4947175;28;20471;-72
2022/10/19 10:24:04;;;;;;;8.50;4.37;;;15.30;86.30;;;;;;4966440;28;20471;-72
2022/10/19 10:26:39;;;;;;;6.47;5.10;;;15.30;85.10;;;;;;4960486;28;20813;-72
2022/10/19 10:29:18;;;;;;;6.27;4.50;;;15.30;85.10;;;;;;4947181;28;20478;-72
2022/10/19 10:31:52;;;;;;;10.10;5.40;;;15.30;85.20;;;;;;4962198;28;20579;-72
2022/10/19 10:34:34;;;;;;;5.23;3.97;;;15.30;85.40;;;;;;4943276;28;20883;-72
2022/10/19 10:37:21;;;;;;;5.77;4.60;;;15.30;85.30;;;;;;4959871;28;20487;-72
2022/10/19 10:39:53;;;;;;;4.17;3.77;;;15.30;85.50;;;;;;4962587;28;20895;-72
2022/10/19 10:42:43;;;;;;;7.50;5.60;;;15.30;85.30;;;;;;4949794;28;20561;-72
2022/10/19 10:45:34;;;;;;;11.50;7.73;;;15.30;85.80;;;;;;4953309;28;20471;-72
2022/10/19 10:48:26;;;;;;;7.80;7.00;;;15.30;86.00;;;;;;4955596;28;20461;-72
2022/10/19 10:51:30;;;;;;;7.63;5.83;;;15.30;86.00;;;;;;4947890;28;20467;-72
2022/10/19 10:54:43;;;;;;;6.77;5.40;;;15.30;85.80;;;;;;4937137;28;20549;-72
2022/10/19 10:57:43;;;;;;;6.53;5.30;;;15.30;86.20;;;;;;4955372;28;20466;-72
2022/10/19 11:00:16;;;;;;;7.30;5.83;;;15.30;85.90;;;;;;4979196;28;20985;-72
2022/10/19 11:02:48;;;;;;;7.07;6.10;;;15.30;86.20;;;;;;4962725;28;20479;-72
2022/10/19 11:05:22;;;;;;;7.00;6.03;;;15.20;86.40;;;;;;4967679;28;20451;-72
2022/10/19 11:07:55;;;;;;;10.90;7.87;;;15.20;86.50;;;;;;4956607;28;20508;-72
2022/10/19 11:10:30;;;;;;;9.07;8.07;;;15.20;86.60;;;;;;4978470;28;20503;-72
2022/10/19 11:13:07;;;;;;;7.60;6.80;;;15.20;87.30;;;;;;4956572;28;20454;-72
2022/10/19 11:15:46;;;;;;;8.70;6.80;;;15.20;87.50;;;;;;4948667;29;20439;-72
2022/10/19 11:18:20;;;;;;;7.80;7.00;;;15.20;87.80;;;;;;4947280;29;20463;-72
2022/10/19 11:20:57;;;;;;;7.87;6.73;;;15.20;88.40;;;;;;4961380;28;20442;-72
2022/10/19 11:23:52;;;;;;;9.50;7.30;;;15.20;87.80;;;;;;4956977;28;20490;-72
2022/10/19 11:26:35;;;;;;;8.80;6.60;;;15.10;87.70;;;;;;4975700;28;20444;-72
2022/10/19 11:29:17;;;;;;;6.73;6.10;;;15.20;87.90;;;;;;4970042;28;20537;-72
2022/10/19 11:31:49;;;;;;;6.87;5.27;;;15.20;88.10;;;;;;4966246;28;20456;-72
2022/10/19 11:34:46;;;;;;;6.53;5.00;;;15.20;87.70;;;;;;4959020;28;20491;-72
2022/10/19 11:37:25;;;;;;;6.03;5.13;;;15.20;87.50;;;;;;4942969;29;20540;-72
2022/10/19 11:40:05;;;;;;;6.73;6.13;;;15.20;87.30;;;;;;4969441;28;20509;-72
2022/10/19 11:42:48;;;;;;;4.47;3.90;;;15.20;87.50;;;;;;4966982;28;20490;-72
2022/10/19 11:45:31;;;;;;;5.70;4.20;;;15.20;87.30;;;;;;4943801;28;20530;-72
2022/10/19 11:48:23;;;;;;;7.73;6.70;;;15.20;87.10;;;;;;4971034;28;20459;-72
2022/10/19 11:50:56;;;;;;;6.37;4.60;;;15.20;87.60;;;;;;4969001;28;20602;-72
2022/10/19 11:53:55;;;;;;;4.90;4.40;;;15.20;87.20;;;;;;4971013;28;20499;-72
2022/10/19 11:56:31;;;;;;;5.20;4.70;;;15.20;87.30;;;;;;4975291;28;20855;-72
2022/10/19 11:59:32;;;;;;;5.93;5.00;;;15.20;87.40;;;;;;4974808;28;21050;-72
2022/10/19 12:02:12;;;;;;;7.37;5.53;;;15.20;87.30;;;;;;4952675;28;21006;-72
2022/10/19 12:04:54;;;;;;;6.40;4.60;;;15.20;87.30;;;;;;4957537;28;20895;-72
2022/10/19 12:07:41;;;;;;;6.33;5.53;;;15.20;87.10;;;;;;4959779;28;20806;-72
2022/10/19 12:10:24;;;;;;;6.03;5.43;;;15.20;87.50;;;;;;4957907;28;20505;-69
2022/10/19 12:12:57;;;;;;;4.80;3.57;;;15.20;87.40;;;;;;4961606;28;20792;-69
2022/10/19 12:15:34;;;;;;;5.03;4.57;;;15.20;87.30;;;;;;4958607;28;20856;-69
2022/10/19 12:18:12;;;;;;;4.73;4.10;;;15.20;87.30;;;;;;4968110;28;20475;-69
2022/10/19 12:20:47;;;;;;;5.10;4.60;;;15.20;88.40;;;;;;4953310;28;20512;-69
2022/10/19 12:23:23;;;;;;;4.17;3.77;;;15.20;88.20;;;;;;4951293;28;20507;-69
2022/10/19 12:25:56;;;;;;;6.57;4.67;;;15.20;87.30;;;;;;4945254;28;20444;-69
2022/10/19 12:28:30;;;;;;;5.00;3.90;;;15.20;87.80;;;;;;4971998;28;20470;-69
2022/10/19 12:31:03;;;;;;;5.63;4.60;;;15.10;87.70;;;;;;4973815;28;21268;-69
2022/10/19 12:33:45;;;;;;;4.83;4.43;;;15.10;87.90;;;;;;4973614;28;20549;-69
2022/10/19 12:36:25;;;;;;;3.87;3.57;;;15.10;87.40;;;;;;4966276;28;20899;-69
2022/10/19 12:39:04;;;;;;;6.37;4.50;;;15.10;87.70;;;;;;4951406;28;20474;-69
2022/10/19 12:41:44;;;;;;;5.10;4.30;;;15.10;87.60;;;;;;4972990;28;20450;-69
2022/10/19 12:44:37;;;;;;;4.83;4.13;;;15.10;87.30;;;;;;4950240;28;20479;-69
2022/10/19 12:47:12;;;;;;;4.37;3.70;;;15.10;87.60;;;;;;4947634;28;20458;-69
2022/10/19 12:49:47;;;;;;;5.07;3.53;;;15.10;87.30;;;;;;4957168;28;20501;-69
2022/10/19 12:52:35;;;;;;;3.83;3.53;;;15.10;87.20;;;;;;4964525;28;20519;-69
2022/10/19 12:55:29;;;;;;;4.60;4.20;;;15.10;87.00;;;;;;4965271;28;20459;-69
2022/10/19 12:58:03;;;;;;;4.40;4.00;;;15.10;87.20;;;;;;4930638;28;20547;-69
2022/10/19 13:00:34;;;;;;;5.60;3.90;;;15.10;87.20;;;;;;4958822;28;21095;-69
2022/10/19 13:03:07;;;;;;;4.17;3.77;;;15.10;87.20;;;;;;4972517;28;20548;-70
2022/10/19 13:05:36;;;;;;;3.97;3.50;;;15.10;87.40;;;;;;4949806;28;20920;-69
2022/10/19 13:08:07;;;;;;;4.07;3.67;;;15.10;87.30;;;;;;4961725;28;20482;-69
2022/10/19 13:11:01;;;;;;;4.50;3.13;;;15.10;87.30;;;;;;4957301;28;20523;-68
2022/10/19 13:13:58;;;;;;;3.73;3.33;;;15.10;87.30;;;;;;4973889;28;20454;-68
2022/10/19 13:16:59;;;;;;;3.70;3.40;;;15.10;87.30;;;;;;4953957;28;20455;-70
2022/10/19 13:19:28;;;;;;;3.93;3.53;;;15.10;87.50;;;;;;4961936;28;20466;-69